Riverton, Canada
Current Conditions -  °F | °C
As of 10:00 AM on Monday 24 Nov 2014 (Local Time) from CYWG Reporting Station
Ice Pellets Ice Pellets  
Wind Chill: -17°   Ceiling: 25000
Heat Index:   Visibility: 15mi
Dew Point: -2°   Wind: 18mph
Humidity: 78%   Direction: 340°NNW
Pressure: 29.86"   Gusts: NA
Location:  51°N, 97°W
Report Text: CYWG 241600Z 34016KT 15SM IC BKN250 M16/M19 A2986 RMK CI5 SLP132
Loading
Personal Weather Stations






























Interactive Weather Map New forecast layout! Learn more

10-Day Weather Forecast

Advertisements
Track Severe Weather on mobile